Flight Track Log - Related Links

Times and Time Zones

All times are in EDT time to prevent confusion due to time zone crossing. See the UAL582 flight status page for this flight to view local times or setup timezone preferences in your user account.

Time Position Orientation Groundspeed Altitude Reporting Facility
EDT Latitude Longitude Course Direction KTS MPH feet Rate Location/Type
Tue 05:20:05 PM 43.6333 -79.7333 270° West 180 207 3,700  Level Toronto Center
Tue 05:21:00 PM 43.7014 -79.9832 277° West  Level FlightAware Approximate
Tue 05:21:05 PM 43.6333 -79.8000 270° West 240 276 6,600  Level Toronto Center
Tue 05:22:00 PM 43.7117 -80.1065 277° West  Level FlightAware Approximate
Tue 05:22:05 PM 43.6500 -79.9167 281° West 260 299 9,700  Level Toronto Center
Tue 05:23:00 PM 43.7179 -80.2302 277° West  Level FlightAware Approximate
Tue 05:23:05 PM 43.6667 -80.0000 285° West 260 299 12,900  Level Toronto Center
Tue 05:24:00 PM 43.7291 -80.3534 277° West  Level FlightAware Approximate
Tue 05:24:05 PM 43.6833 -80.1167 281° West 300 345 14,900  Level Toronto Center
Tue 05:25:00 PM 43.7334 -80.4773 270° West  Level FlightAware Approximate
Tue 05:25:05 PM 43.7000 -80.2333 281° West 320 368 17,600  Level Toronto Center
Tue 05:26:05 PM 43.7167 -80.3500 281° West 330 380 20,000 2,100 Climbing Toronto Center
Tue 05:27:05 PM 43.7333 -80.4833 280° West 340 391 21,800 1,800 Climbing Toronto Center
Tue 05:28:05 PM 43.7167 -80.6167 260° West 360 414 23,600 2,150 Climbing Toronto Center
Tue 05:29:05 PM 43.7000 -80.7667 261° West 380 437 26,100 1,950 Climbing Toronto Center
Tue 05:30:05 PM 43.6500 -80.9000 243° Southwest 380 437 27,500 1,450 Climbing Toronto Center
Tue 05:31:05 PM 43.6167 -81.0333 251° West 390 449 29,000 1,250 Climbing Toronto Center
Tue 05:32:05 PM 43.5833 -81.2000 255° West 400 460 30,000 500 Climbing Toronto Center
Tue 05:33:05 PM 43.5500 -81.3333 251° West 400 460 30,000  Level Toronto Center
Tue 05:34:05 PM 43.5333 -81.5000 262° West 390 449 30,000  Level Toronto Center
Tue 05:35:05 PM 43.5000 -81.6333 251° West 390 449 30,000  Level Toronto Center
Tue 05:36:05 PM 43.4667 -81.7667 251° West 390 449 30,000  Level Toronto Center
Tue 05:37:05 PM 43.4333 -81.9000 251° West 390 449 30,000  Level Toronto Center
Tue 05:38:05 PM 43.4000 -82.0500 253° West 390 449 30,000  Level Toronto Center
Tue 05:38:57 PM 43.3806 -82.1828 259° West 395 455 30,000  Level Cleveland Center
Tue 05:39:57 PM 43.3472 -82.3275 252° West 395 455 30,000  Level Cleveland Center
Tue 05:40:57 PM 43.3161 -82.4578 252° West 406 467 30,000  Level Cleveland Center
Tue 05:41:57 PM 43.2822 -82.6050 252° West 406 467 30,000  Level Cleveland Center
Tue 05:42:57 PM 43.2569 -82.7439 256° West 396 456 30,000  Level Cleveland Center
Tue 05:43:57 PM 43.2292 -82.8853 255° West 396 456 30,000  Level Cleveland Center
Tue 05:44:57 PM 43.2075 -83.0328 259° West 396 456 30,000  Level Cleveland Center
Tue 05:45:57 PM 43.1836 -83.1714 257° West 390 449 30,000  Level Cleveland Center
Tue 05:46:57 PM 43.1614 -83.3128 258° West 390 449 30,000  Level Cleveland Center
Tue 05:47:57 PM 43.1392 -83.4597 258° West 396 456 30,000  Level Cleveland Center
Tue 05:48:57 PM 43.1169 -83.6008 258° West 391 450 30,000  Level Cleveland Center
Tue 05:49:57 PM 43.0922 -83.7419 257° West 391 450 30,000  Level Cleveland Center
Tue 05:50:57 PM 43.0672 -83.8883 257° West 391 450 30,000  Level Cleveland Center
Tue 05:51:57 PM 43.0422 -84.0350 257° West 391 450 30,000  Level Cleveland Center
Tue 05:52:57 PM 43.0169 -84.1756 256° West 391 450 30,000  Level Cleveland Center
Tue 05:53:57 PM 42.9936 -84.3217 258° West 391 450 30,000  Level Cleveland Center
Tue 05:55:09 PM 42.9647 -84.4986 257° West 388 447 30,000  Level Chicago Center
Tue 05:56:11 PM 42.9389 -84.6442 256° West 394 453 30,000  Level Chicago Center
Tue 05:57:13 PM 42.9133 -84.7900 257° West 396 456 30,000  Level Chicago Center
Tue 05:58:15 PM 42.8881 -84.9356 257° West 396 456 30,000  Level Chicago Center
Tue 05:59:17 PM 42.8619 -85.0839 257° West 401 461 30,000  Level Chicago Center
Tue 06:00:19 PM 42.8292 -85.2619 256° West 403 464 30,000  Level Chicago Center
Tue 06:01:21 PM 42.8028 -85.4064 256° West 395 455 30,000 -242 Level Chicago Center
Tue 06:02:23 PM 42.7761 -85.5503 256° West 393 452 29,500 -768 Descending Chicago Center
Tue 06:03:26 PM 42.7506 -85.6922 256° West 386 444 28,400 -1,248 Descending Chicago Center
Tue 06:04:28 PM 42.7264 -85.8339 257° West 383 441 26,900 -1,790 Descending Chicago Center
Tue 06:05:30 PM 42.7006 -85.9706 256° West 373 429 24,700 -2,081 Descending Chicago Center
Tue 06:06:32 PM 42.6764 -86.1028 256° West 364 419 22,600 -2,177 Descending Chicago Center
Tue 06:07:34 PM 42.6481 -86.2572 256° West 353 406 20,200 -1,258 Descending Chicago Center
Tue 06:08:36 PM 42.6239 -86.3836 255° West 348 400 20,000 -823 Descending Chicago Center
Tue 06:09:38 PM 42.6000 -86.5094 256° West 344 396 18,500 -1,694 Descending Chicago Center
Tue 06:10:40 PM 42.5772 -86.6336 256° West 341 392 16,500 -1,887 Descending Chicago Center
Tue 06:11:42 PM 42.5542 -86.7533 255° West 331 381 14,600 -1,790 Descending Chicago Center
Tue 06:12:44 PM 42.5225 -86.8650 249° West 323 372 12,800 -1,887 Descending Chicago Center
Tue 06:13:46 PM 42.4883 -86.9928 250° West 304 350 10,700 -1,344 Descending Chicago Center
Tue 06:14:49 PM 42.4575 -87.0972 248° West 300 345 10,000 -336 Descending Chicago Center
Tue 06:15:51 PM 42.4297 -87.2006 250° West 296 341 10,000 -387 Level Chicago Center
Tue 06:16:53 PM 42.4033 -87.2914 249° West 268 308 9,200 -484 Descending Chicago Center
Tue 06:17:55 PM 42.3747 -87.3833 247° West 265 305 9,000 -97 Descending Chicago Center
Tue 06:18:57 PM 42.3278 -87.4797 237° Southwest 262 302 9,000 -581 Level Chicago Center
Tue 06:19:59 PM 42.2942 -87.5514 238° Southwest 232 267 7,800 -1,016 Descending Chicago Center
Tue 06:21:01 PM 42.2544 -87.6131 229° Southwest 217 250 6,900 -1,016 Descending Chicago Center
Tue 06:22:03 PM 42.2031 -87.6681 218° Southwest 230 265 5,700 -1,065 Descending Chicago Center
Tue 06:23:05 PM 42.1547 -87.7225 220° Southwest 228 262 4,700 -968 Descending Chicago Center

Login

Don't have an account? Register now (free) for customized features, flight alerts, and more!